createdAt,value
2022-08-19T00:06:10.719Z,93.40
2022-08-19T00:16:18.185Z,93.20
2022-08-19T00:26:26.822Z,93.10
2022-08-19T00:36:33.746Z,92.80
2022-08-19T00:46:40.315Z,92.80
2022-08-19T00:56:47.224Z,92.70
2022-08-19T01:06:50.966Z,92.90
2022-08-19T01:16:58.242Z,93.20
2022-08-19T01:27:06.292Z,93.30
2022-08-19T01:37:24.922Z,93.50
2022-08-19T01:47:32.576Z,93.60
2022-08-19T01:57:36.926Z,93.60
2022-08-19T02:07:43.297Z,93.70
2022-08-19T02:17:47.185Z,94.00
2022-08-19T02:27:52.354Z,94.20
2022-08-19T02:38:13.702Z,94.20
2022-08-19T02:48:21.838Z,94.20
2022-08-19T02:58:27.712Z,94.60
2022-08-19T03:08:32.909Z,94.60
2022-08-19T03:18:37.355Z,94.90
2022-08-19T03:28:43.878Z,95.10
2022-08-19T03:38:59.626Z,95.40
2022-08-19T03:49:08.125Z,95.60
2022-08-19T03:59:19.391Z,95.60
2022-08-19T04:09:24.865Z,95.80
2022-08-19T04:19:31.166Z,96.10
2022-08-19T04:29:36.301Z,96.20
2022-08-19T04:39:58.806Z,96.40
2022-08-19T04:50:10.034Z,96.60
2022-08-19T05:00:14.846Z,96.50
2022-08-19T05:10:20.380Z,96.40
2022-08-19T05:20:47.232Z,96.30
2022-08-19T05:30:52.341Z,96.20
2022-08-19T05:40:56.052Z,96.20
2022-08-19T05:51:07.094Z,96.20
2022-08-19T06:01:14.361Z,95.80
2022-08-19T06:11:25.148Z,95.80
2022-08-19T06:21:33.911Z,95.80
2022-08-19T06:31:39.472Z,95.30
2022-08-19T06:41:52.436Z,95.10
2022-08-19T06:51:59.932Z,94.60
2022-08-19T07:02:08.081Z,94.40
2022-08-19T07:12:16.360Z,94.10
2022-08-19T07:22:21.514Z,93.40
2022-08-19T07:32:32.565Z,92.30
2022-08-19T07:42:38.498Z,92.20
2022-08-19T07:52:50.461Z,91.50
2022-08-19T08:02:55.459Z,90.80
2022-08-19T08:13:09.827Z,88.90
2022-08-19T08:23:27.307Z,87.60
2022-08-19T08:33:35.187Z,86.90
2022-08-19T08:43:43.985Z,85.30
2022-08-19T08:53:51.769Z,84.10
2022-08-19T09:04:03.089Z,84.50
2022-08-19T09:14:49.220Z,83.90
2022-08-19T09:24:50.207Z,82.70
2022-08-19T09:34:55.556Z,79.20
2022-08-19T09:45:00.054Z,78.50
2022-08-19T09:55:08.209Z,79.40
2022-08-19T10:05:29.803Z,77.40
2022-08-19T10:15:45.087Z,77.60
2022-08-19T10:25:54.823Z,79.00
2022-08-19T10:36:05.619Z,77.10
2022-08-19T10:46:16.557Z,71.10
2022-08-19T10:56:39.228Z,74.20
2022-08-19T11:06:51.054Z,72.70
2022-08-19T11:16:59.303Z,69.50
2022-08-19T11:27:08.214Z,68.10
2022-08-19T11:37:13.268Z,68.70
2022-08-19T11:47:17.065Z,64.30
2022-08-19T11:57:22.230Z,66.10
2022-08-19T12:07:26.067Z,65.30
2022-08-19T12:17:31.790Z,65.50
2022-08-19T12:27:39.993Z,65.30
2022-08-19T12:38:02.662Z,61.70
2022-08-19T12:48:33.282Z,61.30
2022-08-19T12:58:37.541Z,58.70
2022-08-19T13:08:41.864Z,56.30
2022-08-19T13:18:52.804Z,57.10
2022-08-19T13:29:14.271Z,54.70
2022-08-19T13:39:19.348Z,53.70
2022-08-19T13:49:24.065Z,56.30
2022-08-19T13:59:29.268Z,53.50
2022-08-19T14:09:33.423Z,54.40
2022-08-19T14:19:38.494Z,55.00
2022-08-19T14:29:45.464Z,54.20
2022-08-19T14:39:50.770Z,52.60
2022-08-19T14:49:54.732Z,52.40
2022-08-19T15:00:01.152Z,51.60
2022-08-19T15:10:07.771Z,51.60
2022-08-19T15:20:15.843Z,52.00
2022-08-19T15:30:24.660Z,50.70
2022-08-19T15:40:29.946Z,52.00
2022-08-19T15:50:33.960Z,50.50
2022-08-19T16:00:57.950Z,50.70
2022-08-19T16:11:02.102Z,49.40
2022-08-19T16:21:08.500Z,49.60
2022-08-19T16:31:13.787Z,49.40
2022-08-19T16:41:19.054Z,48.80
2022-08-19T16:51:23.267Z,49.10
2022-08-19T17:01:30.045Z,49.00
2022-08-19T17:11:35.644Z,49.00
2022-08-19T17:21:41.483Z,48.30
2022-08-19T17:31:45.296Z,48.50
2022-08-19T17:41:50.407Z,48.50
2022-08-19T17:51:54.188Z,47.10
2022-08-19T18:01:59.367Z,46.30
2022-08-19T18:12:05.173Z,48.10
2022-08-19T18:22:11.962Z,49.30
2022-08-19T18:32:17.505Z,50.50
2022-08-19T18:42:46.266Z,51.80
2022-08-19T18:52:49.989Z,52.70
2022-08-19T19:02:55.521Z,53.40
2022-08-19T19:13:01.280Z,53.90
2022-08-19T19:23:06.474Z,54.80
2022-08-19T19:33:10.323Z,55.40
2022-08-19T19:43:18.155Z,55.70
2022-08-19T19:53:21.978Z,56.10
2022-08-19T20:03:27.834Z,56.90
2022-08-19T20:13:36.066Z,57.80
2022-08-19T20:23:41.138Z,58.70
2022-08-19T20:33:44.918Z,59.50
2022-08-19T20:43:50.411Z,60.20
2022-08-19T20:53:54.802Z,60.90
2022-08-19T21:03:59.869Z,62.00
2022-08-19T21:14:03.778Z,62.50
2022-08-19T21:24:09.237Z,62.70
2022-08-19T21:34:13.374Z,63.20
2022-08-19T21:44:18.568Z,64.00
2022-08-19T21:54:22.242Z,65.00
2022-08-19T22:04:30.405Z,65.80
2022-08-19T22:14:34.416Z,66.80
2022-08-19T22:24:39.640Z,67.70
2022-08-19T22:34:43.358Z,68.80
2022-08-19T22:44:48.768Z,70.00
2022-08-19T22:54:56.732Z,71.20
2022-08-19T23:05:03.851Z,72.00
2022-08-19T23:15:11.929Z,72.70
2022-08-19T23:25:23.785Z,74.10
2022-08-19T23:35:28.630Z,75.30
2022-08-19T23:45:34.533Z,76.90
2022-08-19T23:55:42.496Z,78.10
